sensor_id;sensor_type;location;lat;lon;timestamp;P1;durP1;ratioP1;P2;durP2;ratioP2
17488;SDS011;8861;52.644;4.734;2023-06-22T00:00:01;29.50;;;21.90;;
17488;SDS011;8861;52.644;4.734;2023-06-22T00:02:33;33.40;;;23.30;;
17488;SDS011;8861;52.644;4.734;2023-06-22T00:05:00;32.80;;;24.30;;
17488;SDS011;8861;52.644;4.734;2023-06-22T00:07:27;38.40;;;25.77;;
17488;SDS011;8861;52.644;4.734;2023-06-22T00:09:54;38.70;;;25.33;;
17488;SDS011;8861;52.644;4.734;2023-06-22T00:12:22;37.27;;;26.43;;
17488;SDS011;8861;52.644;4.734;2023-06-22T00:14:49;36.40;;;25.40;;
17488;SDS011;8861;52.644;4.734;2023-06-22T00:17:16;37.37;;;25.00;;
17488;SDS011;8861;52.644;4.734;2023-06-22T00:19:43;35.97;;;25.57;;
17488;SDS011;8861;52.644;4.734;2023-06-22T00:22:09;37.80;;;25.40;;
17488;SDS011;8861;52.644;4.734;2023-06-22T00:24:36;35.87;;;25.10;;
17488;SDS011;8861;52.644;4.734;2023-06-22T00:27:03;37.43;;;24.70;;
17488;SDS011;8861;52.644;4.734;2023-06-22T00:29:32;35.83;;;24.80;;
17488;SDS011;8861;52.644;4.734;2023-06-22T00:31:59;35.57;;;24.03;;
17488;SDS011;8861;52.644;4.734;2023-06-22T00:34:26;34.83;;;23.80;;
17488;SDS011;8861;52.644;4.734;2023-06-22T00:36:53;38.80;;;25.37;;
17488;SDS011;8861;52.644;4.734;2023-06-22T00:39:19;35.10;;;23.47;;
17488;SDS011;8861;52.644;4.734;2023-06-22T00:41:47;35.07;;;24.07;;
17488;SDS011;8861;52.644;4.734;2023-06-22T00:44:13;34.80;;;23.60;;
17488;SDS011;8861;52.644;4.734;2023-06-22T00:46:42;35.20;;;23.10;;
17488;SDS011;8861;52.644;4.734;2023-06-22T00:49:09;37.80;;;25.20;;
17488;SDS011;8861;52.644;4.734;2023-06-22T00:51:37;37.10;;;23.87;;
17488;SDS011;8861;52.644;4.734;2023-06-22T00:54:12;32.63;;;22.27;;
17488;SDS011;8861;52.644;4.734;2023-06-22T00:56:40;31.37;;;21.73;;
17488;SDS011;8861;52.644;4.734;2023-06-22T00:59:07;30.50;;;20.87;;
17488;SDS011;8861;52.644;4.734;2023-06-22T01:01:37;31.53;;;21.93;;
17488;SDS011;8861;52.644;4.734;2023-06-22T01:04:07;31.60;;;21.87;;
17488;SDS011;8861;52.644;4.734;2023-06-22T01:06:35;31.10;;;20.70;;
17488;SDS011;8861;52.644;4.734;2023-06-22T01:09:11;30.73;;;21.10;;
17488;SDS011;8861;52.644;4.734;2023-06-22T01:11:41;29.67;;;20.30;;
17488;SDS011;8861;52.644;4.734;2023-06-22T01:14:12;32.47;;;22.23;;
17488;SDS011;8861;52.644;4.734;2023-06-22T01:16:44;34.20;;;22.60;;
17488;SDS011;8861;52.644;4.734;2023-06-22T01:19:20;34.07;;;22.37;;
17488;SDS011;8861;52.644;4.734;2023-06-22T01:22:00;39.40;;;24.23;;
17488;SDS011;8861;52.644;4.734;2023-06-22T01:24:30;37.27;;;24.47;;
17488;SDS011;8861;52.644;4.734;2023-06-22T01:27:07;37.57;;;23.47;;
17488;SDS011;8861;52.644;4.734;2023-06-22T01:29:42;38.00;;;24.50;;
17488;SDS011;8861;52.644;4.734;2023-06-22T01:32:10;38.20;;;24.43;;
17488;SDS011;8861;52.644;4.734;2023-06-22T01:34:38;35.53;;;22.30;;
17488;SDS011;8861;52.644;4.734;2023-06-22T01:37:06;33.03;;;21.60;;
17488;SDS011;8861;52.644;4.734;2023-06-22T01:39:34;25.37;;;17.33;;
17488;SDS011;8861;52.644;4.734;2023-06-22T01:42:01;18.70;;;14.37;;
17488;SDS011;8861;52.644;4.734;2023-06-22T01:44:30;16.27;;;12.23;;
17488;SDS011;8861;52.644;4.734;2023-06-22T01:46:59;15.07;;;11.87;;
17488;SDS011;8861;52.644;4.734;2023-06-22T01:49:26;13.13;;;10.90;;
17488;SDS011;8861;52.644;4.734;2023-06-22T01:51:54;12.23;;;9.83;;
17488;SDS011;8861;52.644;4.734;2023-06-22T01:54:21;12.77;;;10.17;;
17488;SDS011;8861;52.644;4.734;2023-06-22T01:56:48;13.80;;;10.87;;
17488;SDS011;8861;52.644;4.734;2023-06-22T01:59:17;12.40;;;10.17;;
17488;SDS011;8861;52.644;4.734;2023-06-22T02:01:49;13.33;;;10.10;;
17488;SDS011;8861;52.644;4.734;2023-06-22T02:04:26;14.77;;;10.73;;
17488;SDS011;8861;52.644;4.734;2023-06-22T02:06:58;13.37;;;9.93;;
17488;SDS011;8861;52.644;4.734;2023-06-22T02:09:25;17.00;;;11.83;;
17488;SDS011;8861;52.644;4.734;2023-06-22T02:11:56;15.10;;;11.67;;
17488;SDS011;8861;52.644;4.734;2023-06-22T02:14:24;17.47;;;12.87;;
17488;SDS011;8861;52.644;4.734;2023-06-22T02:16:52;16.13;;;12.13;;
17488;SDS011;8861;52.644;4.734;2023-06-22T02:19:22;18.70;;;13.50;;
17488;SDS011;8861;52.644;4.734;2023-06-22T02:21:51;18.70;;;13.40;;
17488;SDS011;8861;52.644;4.734;2023-06-22T02:24:18;15.47;;;11.77;;
17488;SDS011;8861;52.644;4.734;2023-06-22T02:26:48;17.87;;;12.90;;
17488;SDS011;8861;52.644;4.734;2023-06-22T02:29:15;17.20;;;13.57;;
17488;SDS011;8861;52.644;4.734;2023-06-22T02:31:43;15.83;;;12.47;;
17488;SDS011;8861;52.644;4.734;2023-06-22T02:34:10;14.73;;;12.00;;
17488;SDS011;8861;52.644;4.734;2023-06-22T02:36:44;15.87;;;11.87;;
17488;SDS011;8861;52.644;4.734;2023-06-22T02:39:16;14.87;;;11.60;;
17488;SDS011;8861;52.644;4.734;2023-06-22T02:41:45;15.60;;;12.13;;
17488;SDS011;8861;52.644;4.734;2023-06-22T02:44:12;18.23;;;14.07;;
17488;SDS011;8861;52.644;4.734;2023-06-22T02:46:39;20.33;;;13.83;;
17488;SDS011;8861;52.644;4.734;2023-06-22T02:49:06;19.87;;;14.93;;
17488;SDS011;8861;52.644;4.734;2023-06-22T02:51:33;20.53;;;14.80;;
17488;SDS011;8861;52.644;4.734;2023-06-22T02:54:02;21.77;;;15.57;;
17488;SDS011;8861;52.644;4.734;2023-06-22T02:56:29;19.47;;;14.87;;
17488;SDS011;8861;52.644;4.734;2023-06-22T02:58:56;20.20;;;15.70;;
17488;SDS011;8861;52.644;4.734;2023-06-22T03:01:25;19.80;;;15.77;;
17488;SDS011;8861;52.644;4.734;2023-06-22T03:03:53;19.03;;;15.30;;
17488;SDS011;8861;52.644;4.734;2023-06-22T03:06:20;19.23;;;15.23;;
17488;SDS011;8861;52.644;4.734;2023-06-22T03:08:48;19.90;;;15.93;;
17488;SDS011;8861;52.644;4.734;2023-06-22T03:11:16;21.40;;;16.23;;
17488;SDS011;8861;52.644;4.734;2023-06-22T03:13:44;20.67;;;16.10;;
17488;SDS011;8861;52.644;4.734;2023-06-22T03:16:11;20.80;;;15.83;;
17488;SDS011;8861;52.644;4.734;2023-06-22T03:18:38;21.30;;;16.27;;
17488;SDS011;8861;52.644;4.734;2023-06-22T03:21:05;19.73;;;15.03;;
17488;SDS011;8861;52.644;4.734;2023-06-22T03:23:32;20.67;;;16.23;;
17488;SDS011;8861;52.644;4.734;2023-06-22T03:25:59;19.03;;;14.80;;
17488;SDS011;8861;52.644;4.734;2023-06-22T03:28:28;19.93;;;15.37;;
17488;SDS011;8861;52.644;4.734;2023-06-22T03:30:56;20.27;;;15.13;;
17488;SDS011;8861;52.644;4.734;2023-06-22T03:33:24;18.93;;;15.17;;
17488;SDS011;8861;52.644;4.734;2023-06-22T03:35:51;17.17;;;14.40;;
17488;SDS011;8861;52.644;4.734;2023-06-22T03:38:18;19.10;;;15.67;;
17488;SDS011;8861;52.644;4.734;2023-06-22T03:40:46;18.00;;;15.07;;
17488;SDS011;8861;52.644;4.734;2023-06-22T03:43:13;18.20;;;15.57;;
17488;SDS011;8861;52.644;4.734;2023-06-22T03:45:41;16.30;;;14.20;;
17488;SDS011;8861;52.644;4.734;2023-06-22T03:48:10;17.50;;;14.50;;
17488;SDS011;8861;52.644;4.734;2023-06-22T03:50:37;18.70;;;15.07;;
17488;SDS011;8861;52.644;4.734;2023-06-22T03:53:04;17.83;;;14.87;;
17488;SDS011;8861;52.644;4.734;2023-06-22T03:55:31;16.47;;;14.20;;
17488;SDS011;8861;52.644;4.734;2023-06-22T03:57:59;22.47;;;18.53;;
17488;SDS011;8861;52.644;4.734;2023-06-22T04:00:31;23.33;;;19.03;;
17488;SDS011;8861;52.644;4.734;2023-06-22T04:02:59;25.40;;;19.77;;
17488;SDS011;8861;52.644;4.734;2023-06-22T04:05:26;27.73;;;21.40;;
17488;SDS011;8861;52.644;4.734;2023-06-22T04:07:53;24.57;;;19.67;;
17488;SDS011;8861;52.644;4.734;2023-06-22T04:10:20;24.23;;;19.57;;
17488;SDS011;8861;52.644;4.734;2023-06-22T04:12:47;22.63;;;18.60;;
17488;SDS011;8861;52.644;4.734;2023-06-22T04:15:14;22.10;;;17.57;;
17488;SDS011;8861;52.644;4.734;2023-06-22T04:17:41;24.10;;;19.30;;
17488;SDS011;8861;52.644;4.734;2023-06-22T04:20:10;24.93;;;19.50;;
17488;SDS011;8861;52.644;4.734;2023-06-22T04:22:37;21.83;;;17.57;;
17488;SDS011;8861;52.644;4.734;2023-06-22T04:25:05;24.33;;;19.13;;
17488;SDS011;8861;52.644;4.734;2023-06-22T04:27:33;25.53;;;19.67;;
17488;SDS011;8861;52.644;4.734;2023-06-22T04:30:02;24.10;;;18.80;;
17488;SDS011;8861;52.644;4.734;2023-06-22T04:32:32;26.83;;;19.93;;
17488;SDS011;8861;52.644;4.734;2023-06-22T04:34:59;24.30;;;19.67;;
17488;SDS011;8861;52.644;4.734;2023-06-22T04:37:27;25.07;;;19.00;;
17488;SDS011;8861;52.644;4.734;2023-06-22T04:39:54;22.67;;;17.63;;
17488;SDS011;8861;52.644;4.734;2023-06-22T04:42:21;22.43;;;18.17;;
17488;SDS011;8861;52.644;4.734;2023-06-22T04:44:48;22.77;;;18.33;;
17488;SDS011;8861;52.644;4.734;2023-06-22T04:47:15;23.77;;;18.50;;
17488;SDS011;8861;52.644;4.734;2023-06-22T04:49:42;22.73;;;18.40;;
17488;SDS011;8861;52.644;4.734;2023-06-22T04:52:10;24.23;;;18.87;;
17488;SDS011;8861;52.644;4.734;2023-06-22T04:54:40;23.47;;;18.53;;
17488;SDS011;8861;52.644;4.734;2023-06-22T04:57:12;24.77;;;18.57;;
17488;SDS011;8861;52.644;4.734;2023-06-22T04:59:40;24.77;;;20.10;;
17488;SDS011;8861;52.644;4.734;2023-06-22T05:02:08;23.90;;;18.93;;
17488;SDS011;8861;52.644;4.734;2023-06-22T05:04:36;27.40;;;20.47;;
17488;SDS011;8861;52.644;4.734;2023-06-22T05:07:03;25.17;;;19.47;;
17488;SDS011;8861;52.644;4.734;2023-06-22T05:09:31;23.80;;;18.17;;
17488;SDS011;8861;52.644;4.734;2023-06-22T05:12:01;24.93;;;18.63;;
17488;SDS011;8861;52.644;4.734;2023-06-22T05:14:29;28.37;;;20.83;;
17488;SDS011;8861;52.644;4.734;2023-06-22T05:16:57;25.80;;;19.27;;
17488;SDS011;8861;52.644;4.734;2023-06-22T05:19:29;22.63;;;17.17;;
17488;SDS011;8861;52.644;4.734;2023-06-22T05:21:58;22.80;;;17.73;;
17488;SDS011;8861;52.644;4.734;2023-06-22T05:24:25;21.80;;;16.63;;
17488;SDS011;8861;52.644;4.734;2023-06-22T05:26:52;24.67;;;18.97;;
17488;SDS011;8861;52.644;4.734;2023-06-22T05:29:20;22.13;;;17.13;;
17488;SDS011;8861;52.644;4.734;2023-06-22T05:31:48;21.87;;;16.77;;
17488;SDS011;8861;52.644;4.734;2023-06-22T05:34:15;22.83;;;17.53;;
17488;SDS011;8861;52.644;4.734;2023-06-22T05:36:42;19.27;;;15.03;;
17488;SDS011;8861;52.644;4.734;2023-06-22T05:39:12;19.60;;;15.03;;
17488;SDS011;8861;52.644;4.734;2023-06-22T05:41:40;22.47;;;16.83;;
17488;SDS011;8861;52.644;4.734;2023-06-22T05:44:08;23.90;;;17.30;;
17488;SDS011;8861;52.644;4.734;2023-06-22T05:46:36;22.20;;;16.90;;
17488;SDS011;8861;52.644;4.734;2023-06-22T05:49:05;25.13;;;18.40;;
17488;SDS011;8861;52.644;4.734;2023-06-22T05:51:32;20.67;;;15.63;;
17488;SDS011;8861;52.644;4.734;2023-06-22T05:53:59;21.17;;;15.57;;
17488;SDS011;8861;52.644;4.734;2023-06-22T05:56:26;21.83;;;16.57;;
17488;SDS011;8861;52.644;4.734;2023-06-22T05:58:53;24.50;;;17.87;;
17488;SDS011;8861;52.644;4.734;2023-06-22T06:01:20;21.20;;;15.20;;
17488;SDS011;8861;52.644;4.734;2023-06-22T06:03:49;23.63;;;16.30;;
17488;SDS011;8861;52.644;4.734;2023-06-22T06:06:17;18.60;;;14.57;;
17488;SDS011;8861;52.644;4.734;2023-06-22T06:08:45;21.20;;;16.13;;
17488;SDS011;8861;52.644;4.734;2023-06-22T06:11:12;23.17;;;16.70;;
17488;SDS011;8861;52.644;4.734;2023-06-22T06:13:39;25.23;;;18.40;;
17488;SDS011;8861;52.644;4.734;2023-06-22T06:16:06;23.00;;;16.80;;
17488;SDS011;8861;52.644;4.734;2023-06-22T06:18:33;27.33;;;19.80;;
17488;SDS011;8861;52.644;4.734;2023-06-22T06:21:03;23.47;;;17.60;;
17488;SDS011;8861;52.644;4.734;2023-06-22T06:23:30;23.40;;;18.03;;
17488;SDS011;8861;52.644;4.734;2023-06-22T06:25:57;29.53;;;22.13;;
17488;SDS011;8861;52.644;4.734;2023-06-22T06:28:24;28.57;;;20.40;;
17488;SDS011;8861;52.644;4.734;2023-06-22T06:30:51;29.53;;;19.60;;
17488;SDS011;8861;52.644;4.734;2023-06-22T06:33:19;28.90;;;20.73;;
17488;SDS011;8861;52.644;4.734;2023-06-22T06:35:46;26.13;;;19.40;;
17488;SDS011;8861;52.644;4.734;2023-06-22T06:38:14;25.03;;;19.07;;
17488;SDS011;8861;52.644;4.734;2023-06-22T06:40:41;24.03;;;18.23;;
17488;SDS011;8861;52.644;4.734;2023-06-22T06:43:10;27.00;;;19.33;;
17488;SDS011;8861;52.644;4.734;2023-06-22T06:45:37;23.47;;;17.43;;
17488;SDS011;8861;52.644;4.734;2023-06-22T06:48:04;23.77;;;18.13;;
17488;SDS011;8861;52.644;4.734;2023-06-22T06:50:31;24.50;;;18.80;;
17488;SDS011;8861;52.644;4.734;2023-06-22T06:52:58;28.63;;;20.53;;
17488;SDS011;8861;52.644;4.734;2023-06-22T06:55:26;32.97;;;22.90;;
17488;SDS011;8861;52.644;4.734;2023-06-22T06:57:57;34.00;;;23.97;;
17488;SDS011;8861;52.644;4.734;2023-06-22T07:00:24;29.90;;;21.13;;
17488;SDS011;8861;52.644;4.734;2023-06-22T07:02:52;29.70;;;21.90;;
17488;SDS011;8861;52.644;4.734;2023-06-22T07:05:19;30.40;;;22.27;;
17488;SDS011;8861;52.644;4.734;2023-06-22T07:07:46;31.33;;;22.97;;
17488;SDS011;8861;52.644;4.734;2023-06-22T07:10:14;23.97;;;18.03;;
17488;SDS011;8861;52.644;4.734;2023-06-22T07:12:42;24.50;;;18.50;;
17488;SDS011;8861;52.644;4.734;2023-06-22T07:15:10;26.43;;;19.63;;
17488;SDS011;8861;52.644;4.734;2023-06-22T07:17:37;20.10;;;16.43;;
17488;SDS011;8861;52.644;4.734;2023-06-22T07:20:06;22.03;;;16.80;;
17488;SDS011;8861;52.644;4.734;2023-06-22T07:22:36;26.50;;;19.03;;
17488;SDS011;8861;52.644;4.734;2023-06-22T07:25:04;23.87;;;17.40;;
17488;SDS011;8861;52.644;4.734;2023-06-22T07:27:34;25.87;;;18.43;;
17488;SDS011;8861;52.644;4.734;2023-06-22T07:30:07;22.53;;;17.30;;
17488;SDS011;8861;52.644;4.734;2023-06-22T07:32:34;22.37;;;16.73;;
17488;SDS011;8861;52.644;4.734;2023-06-22T07:35:02;20.63;;;15.83;;
17488;SDS011;8861;52.644;4.734;2023-06-22T07:37:29;18.47;;;14.73;;
17488;SDS011;8861;52.644;4.734;2023-06-22T07:39:58;17.13;;;13.73;;
17488;SDS011;8861;52.644;4.734;2023-06-22T07:42:25;18.43;;;15.03;;
17488;SDS011;8861;52.644;4.734;2023-06-22T07:44:52;17.17;;;13.50;;
17488;SDS011;8861;52.644;4.734;2023-06-22T07:47:21;17.27;;;13.87;;
17488;SDS011;8861;52.644;4.734;2023-06-22T07:49:50;16.67;;;13.03;;
17488;SDS011;8861;52.644;4.734;2023-06-22T07:52:19;16.80;;;13.63;;
17488;SDS011;8861;52.644;4.734;2023-06-22T07:54:47;15.13;;;11.93;;
17488;SDS011;8861;52.644;4.734;2023-06-22T07:57:14;18.47;;;14.43;;
17488;SDS011;8861;52.644;4.734;2023-06-22T07:59:41;15.57;;;12.83;;
17488;SDS011;8861;52.644;4.734;2023-06-22T08:02:08;17.20;;;13.17;;
17488;SDS011;8861;52.644;4.734;2023-06-22T08:04:36;18.43;;;14.60;;
17488;SDS011;8861;52.644;4.734;2023-06-22T08:07:04;17.13;;;12.80;;
17488;SDS011;8861;52.644;4.734;2023-06-22T08:09:31;16.40;;;13.07;;
17488;SDS011;8861;52.644;4.734;2023-06-22T08:11:59;16.13;;;13.53;;
17488;SDS011;8861;52.644;4.734;2023-06-22T08:14:26;15.33;;;11.70;;
17488;SDS011;8861;52.644;4.734;2023-06-22T08:16:53;12.00;;;10.70;;
17488;SDS011;8861;52.644;4.734;2023-06-22T08:19:20;14.13;;;10.90;;
17488;SDS011;8861;52.644;4.734;2023-06-22T08:21:49;12.53;;;9.90;;
17488;SDS011;8861;52.644;4.734;2023-06-22T08:24:16;12.73;;;10.37;;
17488;SDS011;8861;52.644;4.734;2023-06-22T08:26:43;12.97;;;10.50;;
17488;SDS011;8861;52.644;4.734;2023-06-22T08:29:11;14.40;;;11.43;;
17488;SDS011;8861;52.644;4.734;2023-06-22T08:31:38;13.23;;;10.57;;
17488;SDS011;8861;52.644;4.734;2023-06-22T08:34:05;10.83;;;9.70;;
17488;SDS011;8861;52.644;4.734;2023-06-22T08:36:32;13.43;;;10.57;;
17488;SDS011;8861;52.644;4.734;2023-06-22T08:39:04;15.53;;;11.90;;
17488;SDS011;8861;52.644;4.734;2023-06-22T08:41:31;12.30;;;10.20;;
17488;SDS011;8861;52.644;4.734;2023-06-22T08:43:58;11.87;;;10.00;;
17488;SDS011;8861;52.644;4.734;2023-06-22T08:46:25;10.33;;;8.63;;
17488;SDS011;8861;52.644;4.734;2023-06-22T08:48:55;11.70;;;9.50;;
17488;SDS011;8861;52.644;4.734;2023-06-22T08:51:23;11.77;;;9.43;;
17488;SDS011;8861;52.644;4.734;2023-06-22T08:53:50;11.30;;;9.07;;
17488;SDS011;8861;52.644;4.734;2023-06-22T08:56:18;10.10;;;8.93;;
17488;SDS011;8861;52.644;4.734;2023-06-22T08:58:45;13.03;;;10.57;;
17488;SDS011;8861;52.644;4.734;2023-06-22T09:01:12;13.53;;;10.50;;
17488;SDS011;8861;52.644;4.734;2023-06-22T09:03:40;14.50;;;9.37;;
17488;SDS011;8861;52.644;4.734;2023-06-22T09:06:07;9.97;;;8.80;;
17488;SDS011;8861;52.644;4.734;2023-06-22T09:08:35;8.63;;;7.20;;
17488;SDS011;8861;52.644;4.734;2023-06-22T09:11:02;7.77;;;6.63;;
17488;SDS011;8861;52.644;4.734;2023-06-22T09:13:31;9.57;;;7.30;;
17488;SDS011;8861;52.644;4.734;2023-06-22T09:15:59;7.53;;;6.30;;
17488;SDS011;8861;52.644;4.734;2023-06-22T09:18:26;7.30;;;5.80;;
17488;SDS011;8861;52.644;4.734;2023-06-22T09:20:53;8.07;;;6.20;;
17488;SDS011;8861;52.644;4.734;2023-06-22T09:23:20;7.73;;;5.47;;
17488;SDS011;8861;52.644;4.734;2023-06-22T09:25:47;9.57;;;6.37;;
17488;SDS011;8861;52.644;4.734;2023-06-22T09:28:14;9.83;;;7.37;;
17488;SDS011;8861;52.644;4.734;2023-06-22T09:30:43;9.83;;;7.00;;
17488;SDS011;8861;52.644;4.734;2023-06-22T09:33:11;8.77;;;7.37;;
17488;SDS011;8861;52.644;4.734;2023-06-22T09:35:38;7.33;;;6.50;;
17488;SDS011;8861;52.644;4.734;2023-06-22T09:38:05;6.23;;;5.60;;
17488;SDS011;8861;52.644;4.734;2023-06-22T09:40:32;6.93;;;5.83;;
17488;SDS011;8861;52.644;4.734;2023-06-22T09:43:00;7.67;;;6.00;;
17488;SDS011;8861;52.644;4.734;2023-06-22T09:45:27;8.10;;;6.60;;
17488;SDS011;8861;52.644;4.734;2023-06-22T09:47:56;7.23;;;6.00;;
17488;SDS011;8861;52.644;4.734;2023-06-22T09:50:23;11.47;;;8.53;;
17488;SDS011;8861;52.644;4.734;2023-06-22T09:52:50;9.30;;;7.60;;
17488;SDS011;8861;52.644;4.734;2023-06-22T09:55:19;9.23;;;7.50;;
17488;SDS011;8861;52.644;4.734;2023-06-22T09:57:47;10.63;;;7.93;;
17488;SDS011;8861;52.644;4.734;2023-06-22T10:00:15;13.13;;;9.77;;
17488;SDS011;8861;52.644;4.734;2023-06-22T10:02:44;8.90;;;7.40;;
17488;SDS011;8861;52.644;4.734;2023-06-22T10:05:12;10.73;;;7.77;;
17488;SDS011;8861;52.644;4.734;2023-06-22T10:07:39;10.70;;;8.13;;
17488;SDS011;8861;52.644;4.734;2023-06-22T10:10:08;10.57;;;8.53;;
17488;SDS011;8861;52.644;4.734;2023-06-22T10:12:35;11.60;;;9.37;;
17488;SDS011;8861;52.644;4.734;2023-06-22T10:15:03;10.93;;;8.20;;
17488;SDS011;8861;52.644;4.734;2023-06-22T10:17:30;9.40;;;7.80;;
17488;SDS011;8861;52.644;4.734;2023-06-22T10:19:57;9.57;;;7.30;;
17488;SDS011;8861;52.644;4.734;2023-06-22T10:22:27;8.57;;;6.73;;
17488;SDS011;8861;52.644;4.734;2023-06-22T10:24:54;7.57;;;6.07;;
17488;SDS011;8861;52.644;4.734;2023-06-22T10:27:21;8.43;;;6.30;;
17488;SDS011;8861;52.644;4.734;2023-06-22T10:29:48;8.17;;;6.77;;
17488;SDS011;8861;52.644;4.734;2023-06-22T10:32:15;10.20;;;7.97;;
17488;SDS011;8861;52.644;4.734;2023-06-22T10:34:42;9.43;;;7.23;;
17488;SDS011;8861;52.644;4.734;2023-06-22T10:37:09;7.33;;;6.03;;
17488;SDS011;8861;52.644;4.734;2023-06-22T10:39:37;11.17;;;8.00;;
17488;SDS011;8861;52.644;4.734;2023-06-22T10:42:04;7.07;;;5.97;;
17488;SDS011;8861;52.644;4.734;2023-06-22T10:44:32;7.63;;;6.53;;
17488;SDS011;8861;52.644;4.734;2023-06-22T10:46:59;10.20;;;8.10;;
17488;SDS011;8861;52.644;4.734;2023-06-22T10:49:26;7.77;;;6.70;;
17488;SDS011;8861;52.644;4.734;2023-06-22T10:51:52;9.97;;;7.40;;
17488;SDS011;8861;52.644;4.734;2023-06-22T10:54:19;9.50;;;7.33;;
17488;SDS011;8861;52.644;4.734;2023-06-22T10:56:48;8.23;;;6.47;;
17488;SDS011;8861;52.644;4.734;2023-06-22T10:59:15;8.83;;;6.87;;
17488;SDS011;8861;52.644;4.734;2023-06-22T11:01:43;8.10;;;6.80;;
17488;SDS011;8861;52.644;4.734;2023-06-22T11:04:10;10.10;;;7.37;;
17488;SDS011;8861;52.644;4.734;2023-06-22T11:06:37;8.93;;;6.83;;
17488;SDS011;8861;52.644;4.734;2023-06-22T11:09:04;9.77;;;6.70;;
17488;SDS011;8861;52.644;4.734;2023-06-22T11:11:31;9.97;;;7.77;;
17488;SDS011;8861;52.644;4.734;2023-06-22T11:13:59;9.97;;;7.53;;
17488;SDS011;8861;52.644;4.734;2023-06-22T11:16:26;8.43;;;6.40;;
17488;SDS011;8861;52.644;4.734;2023-06-22T11:18:53;9.33;;;7.10;;
17488;SDS011;8861;52.644;4.734;2023-06-22T11:21:20;6.90;;;5.70;;
17488;SDS011;8861;52.644;4.734;2023-06-22T11:23:47;5.23;;;4.63;;
17488;SDS011;8861;52.644;4.734;2023-06-22T11:26:15;9.33;;;7.97;;
17488;SDS011;8861;52.644;4.734;2023-06-22T11:28:42;8.00;;;6.87;;
17488;SDS011;8861;52.644;4.734;2023-06-22T11:31:10;7.40;;;5.40;;
17488;SDS011;8861;52.644;4.734;2023-06-22T11:33:37;6.30;;;4.93;;
17488;SDS011;8861;52.644;4.734;2023-06-22T11:36:04;8.57;;;6.60;;
17488;SDS011;8861;52.644;4.734;2023-06-22T11:38:32;6.93;;;6.23;;
17488;SDS011;8861;52.644;4.734;2023-06-22T11:40:59;6.43;;;5.70;;
17488;SDS011;8861;52.644;4.734;2023-06-22T11:43:26;6.10;;;5.20;;
17488;SDS011;8861;52.644;4.734;2023-06-22T11:45:53;4.97;;;4.30;;
17488;SDS011;8861;52.644;4.734;2023-06-22T11:48:23;5.87;;;4.70;;
17488;SDS011;8861;52.644;4.734;2023-06-22T11:50:50;6.17;;;5.40;;
17488;SDS011;8861;52.644;4.734;2023-06-22T11:53:17;6.43;;;5.37;;
17488;SDS011;8861;52.644;4.734;2023-06-22T11:55:44;7.00;;;4.80;;
17488;SDS011;8861;52.644;4.734;2023-06-22T11:58:11;4.93;;;4.30;;
17488;SDS011;8861;52.644;4.734;2023-06-22T12:00:38;8.00;;;6.73;;
17488;SDS011;8861;52.644;4.734;2023-06-22T12:03:06;6.03;;;5.03;;
17488;SDS011;8861;52.644;4.734;2023-06-22T12:05:35;6.70;;;4.97;;
17488;SDS011;8861;52.644;4.734;2023-06-22T12:08:03;8.40;;;5.43;;
17488;SDS011;8861;52.644;4.734;2023-06-22T12:10:30;6.07;;;5.47;;
17488;SDS011;8861;52.644;4.734;2023-06-22T12:12:57;4.97;;;4.40;;
17488;SDS011;8861;52.644;4.734;2023-06-22T12:15:25;5.70;;;4.40;;
17488;SDS011;8861;52.644;4.734;2023-06-22T12:17:52;5.13;;;4.40;;
17488;SDS011;8861;52.644;4.734;2023-06-22T12:20:19;7.60;;;6.40;;
17488;SDS011;8861;52.644;4.734;2023-06-22T12:22:48;8.00;;;6.43;;
17488;SDS011;8861;52.644;4.734;2023-06-22T12:25:16;10.17;;;6.87;;
17488;SDS011;8861;52.644;4.734;2023-06-22T12:27:43;7.03;;;5.93;;
17488;SDS011;8861;52.644;4.734;2023-06-22T12:30:10;6.80;;;5.80;;
17488;SDS011;8861;52.644;4.734;2023-06-22T12:32:37;6.63;;;5.93;;
17488;SDS011;8861;52.644;4.734;2023-06-22T12:35:05;7.50;;;5.40;;
17488;SDS011;8861;52.644;4.734;2023-06-22T12:37:37;7.27;;;4.87;;
17488;SDS011;8861;52.644;4.734;2023-06-22T12:40:06;7.30;;;5.90;;
17488;SDS011;8861;52.644;4.734;2023-06-22T12:42:34;7.77;;;5.60;;
17488;SDS011;8861;52.644;4.734;2023-06-22T12:45:01;5.40;;;4.53;;
17488;SDS011;8861;52.644;4.734;2023-06-22T12:47:28;4.37;;;3.97;;
17488;SDS011;8861;52.644;4.734;2023-06-22T12:49:55;5.90;;;4.17;;
17488;SDS011;8861;52.644;4.734;2023-06-22T12:52:22;5.50;;;4.27;;
17488;SDS011;8861;52.644;4.734;2023-06-22T12:54:49;5.90;;;4.50;;
17488;SDS011;8861;52.644;4.734;2023-06-22T12:57:18;4.97;;;4.47;;
17488;SDS011;8861;52.644;4.734;2023-06-22T12:59:45;4.77;;;4.27;;
17488;SDS011;8861;52.644;4.734;2023-06-22T13:02:12;6.70;;;4.60;;
17488;SDS011;8861;52.644;4.734;2023-06-22T13:04:39;5.07;;;4.40;;
17488;SDS011;8861;52.644;4.734;2023-06-22T13:07:08;5.17;;;4.13;;
17488;SDS011;8861;52.644;4.734;2023-06-22T13:09:36;5.67;;;5.00;;
17488;SDS011;8861;52.644;4.734;2023-06-22T13:12:03;5.87;;;5.10;;
17488;SDS011;8861;52.644;4.734;2023-06-22T13:14:32;6.50;;;5.07;;
17488;SDS011;8861;52.644;4.734;2023-06-22T13:16:59;6.30;;;5.20;;
17488;SDS011;8861;52.644;4.734;2023-06-22T13:19:26;7.43;;;6.10;;
17488;SDS011;8861;52.644;4.734;2023-06-22T13:21:57;8.53;;;7.30;;
17488;SDS011;8861;52.644;4.734;2023-06-22T13:24:24;8.00;;;6.10;;
17488;SDS011;8861;52.644;4.734;2023-06-22T13:26:51;6.20;;;5.00;;
17488;SDS011;8861;52.644;4.734;2023-06-22T13:29:18;6.37;;;5.40;;
17488;SDS011;8861;52.644;4.734;2023-06-22T13:31:47;5.57;;;4.97;;
17488;SDS011;8861;52.644;4.734;2023-06-22T13:34:14;5.83;;;4.63;;
17488;SDS011;8861;52.644;4.734;2023-06-22T13:36:41;6.77;;;5.23;;
17488;SDS011;8861;52.644;4.734;2023-06-22T13:39:08;8.80;;;6.33;;
17488;SDS011;8861;52.644;4.734;2023-06-22T13:41:35;7.53;;;5.40;;
17488;SDS011;8861;52.644;4.734;2023-06-22T13:44:02;6.43;;;5.20;;
17488;SDS011;8861;52.644;4.734;2023-06-22T13:46:29;7.77;;;6.03;;
17488;SDS011;8861;52.644;4.734;2023-06-22T13:48:57;7.33;;;5.23;;
17488;SDS011;8861;52.644;4.734;2023-06-22T13:51:24;6.00;;;5.00;;
17488;SDS011;8861;52.644;4.734;2023-06-22T13:53:51;6.43;;;5.60;;
17488;SDS011;8861;52.644;4.734;2023-06-22T13:56:18;7.77;;;5.43;;
17488;SDS011;8861;52.644;4.734;2023-06-22T13:58:46;6.80;;;5.90;;
17488;SDS011;8861;52.644;4.734;2023-06-22T14:01:13;6.93;;;5.67;;
17488;SDS011;8861;52.644;4.734;2023-06-22T14:03:40;6.50;;;4.93;;
17488;SDS011;8861;52.644;4.734;2023-06-22T14:06:11;5.87;;;4.70;;
17488;SDS011;8861;52.644;4.734;2023-06-22T14:08:38;5.53;;;4.90;;
17488;SDS011;8861;52.644;4.734;2023-06-22T14:11:05;6.97;;;5.30;;
17488;SDS011;8861;52.644;4.734;2023-06-22T14:13:32;5.60;;;5.00;;
17488;SDS011;8861;52.644;4.734;2023-06-22T14:16:00;5.30;;;4.60;;
17488;SDS011;8861;52.644;4.734;2023-06-22T14:18:29;5.67;;;4.63;;
17488;SDS011;8861;52.644;4.734;2023-06-22T14:20:56;5.00;;;4.10;;
17488;SDS011;8861;52.644;4.734;2023-06-22T14:23:24;4.70;;;4.13;;
17488;SDS011;8861;52.644;4.734;2023-06-22T14:25:51;7.00;;;4.03;;
17488;SDS011;8861;52.644;4.734;2023-06-22T14:28:18;4.33;;;3.47;;
17488;SDS011;8861;52.644;4.734;2023-06-22T14:30:45;4.30;;;3.43;;
17488;SDS011;8861;52.644;4.734;2023-06-22T14:33:12;4.87;;;3.60;;
17488;SDS011;8861;52.644;4.734;2023-06-22T14:35:39;4.57;;;3.47;;
17488;SDS011;8861;52.644;4.734;2023-06-22T14:38:06;5.03;;;4.00;;
17488;SDS011;8861;52.644;4.734;2023-06-22T14:40:35;4.07;;;3.67;;
17488;SDS011;8861;52.644;4.734;2023-06-22T14:43:02;5.20;;;3.83;;
17488;SDS011;8861;52.644;4.734;2023-06-22T14:45:29;4.10;;;3.70;;
17488;SDS011;8861;52.644;4.734;2023-06-22T14:47:56;4.07;;;3.63;;